Terminal Aerodrome Forecast
Issued by NWS Binghamton, NY

Home | Current Version | Previous Version | Text Only | Print | Product List | Glossary On
Versions: 1 2 3 4 5 6 7 8 9 10 11 12
642
FTUS41 KBGM 231734
TAFAVP
TAF
KAVP 231734Z 2318/2418 19008KT P6SM SKC
     FM240100 12004KT P6SM FEW250
     FM241200 14005KT P6SM SCT150 BKN250
     FM241600 20007G15KT P6SM FEW060 SCT090 BKN150=

USA.gov is the U.S. government's official web portal to all federal, state and local government web resources and services.